Time;durP1;ratioP1;P1;durP2;ratioP2;P2;SDS_P1;SDS_P2;PMS_P1;PMS_P2;Temp;Humidity;BMP_temperature;BMP_pressure;BME280_temperature;BME280_humidity;BME280_pressure;Samples;Min_cycle;Max_cycle;Signal;HPM_P1;HPM_P2
2023/03/22 00:01:52;;;;;;;7.00;3.90;;;;;;;;;;5024141;28;20402;-57
2023/03/22 00:04:18;;;;;;;8.10;4.05;;;;;;;;;;5020660;28;20075;-58
2023/03/22 00:06:43;;;;;;;7.20;4.10;;;;;;;;;;5034926;28;20041;-58
2023/03/22 00:09:09;;;;;;;6.88;3.63;;;;;;;;;;5023046;28;20033;-57
2023/03/22 00:11:34;;;;;;;5.68;3.80;;;;;;;;;;5024482;28;20026;-56
2023/03/22 00:13:59;;;;;;;6.63;4.85;;;;;;;;;;5023732;28;20047;-58
2023/03/22 00:16:25;;;;;;;6.95;4.32;;;;;;;;;;5022712;28;20040;-57
2023/03/22 00:18:50;;;;;;;7.40;4.85;;;;;;;;;;5026353;28;20494;-60
2023/03/22 00:21:16;;;;;;;7.40;4.40;;;;;;;;;;5022803;28;20484;-54
2023/03/22 00:23:42;;;;;;;10.45;5.53;;;;;;;;;;5025709;28;20036;-61
2023/03/22 00:26:08;;;;;;;11.25;5.50;;;;;;;;;;5022700;28;20033;-56
2023/03/22 00:28:35;;;;;;;10.70;4.60;;;;;;;;;;5014397;28;20475;-58
2023/03/22 00:31:01;;;;;;;9.05;4.85;;;;;;;;;;5023441;28;20048;-55
2023/03/22 00:33:27;;;;;;;9.48;5.30;;;;;;;;;;5022147;28;20466;-53
2023/03/22 00:35:54;;;;;;;12.38;5.20;;;;;;;;;;5023844;28;20057;-57
2023/03/22 00:38:19;;;;;;;8.82;4.95;;;;;;;;;;5021876;28;20029;-59
2023/03/22 00:40:45;;;;;;;11.48;5.22;;;;;;;;;;5022730;28;20091;-56
2023/03/22 00:43:10;;;;;;;8.55;5.32;;;;;;;;;;5021542;28;20609;-55
2023/03/22 00:45:36;;;;;;;9.52;6.07;;;;;;;;;;5019951;28;20498;-59
2023/03/22 00:48:02;;;;;;;10.73;6.50;;;;;;;;;;5021189;28;20029;-58
2023/03/22 00:50:28;;;;;;;10.60;6.30;;;;;;;;;;5015189;28;20365;-55
2023/03/22 00:52:53;;;;;;;14.32;6.35;;;;;;;;;;5020938;28;20745;-61
2023/03/22 00:55:18;;;;;;;10.13;5.75;;;;;;;;;;5014439;28;20817;-54
2023/03/22 00:57:44;;;;;;;10.75;5.95;;;;;;;;;;5018791;28;20025;-57
2023/03/22 01:00:12;;;;;;;8.73;5.35;;;;;;;;;;5021327;28;20634;-54
2023/03/22 01:02:39;;;;;;;8.38;5.40;;;;;;;;;;5023753;28;20088;-56
2023/03/22 01:05:07;;;;;;;9.35;5.50;;;;;;;;;;5038318;28;20401;-54
2023/03/22 01:07:32;;;;;;;12.95;5.38;;;;;;;;;;5020941;28;20025;-53
2023/03/22 01:10:01;;;;;;;8.05;5.10;;;;;;;;;;5020989;28;20045;-57
2023/03/22 01:12:26;;;;;;;7.45;5.00;;;;;;;;;;5021317;28;20030;-60
2023/03/22 01:14:52;;;;;;;6.80;4.45;;;;;;;;;;5019942;28;20033;-59
2023/03/22 01:17:17;;;;;;;11.68;5.25;;;;;;;;;;5021914;28;20044;-54
2023/03/22 01:19:43;;;;;;;10.93;5.20;;;;;;;;;;5005754;28;20575;-54
2023/03/22 01:22:08;;;;;;;8.73;4.88;;;;;;;;;;5020804;28;20025;-54
2023/03/22 01:24:34;;;;;;;8.02;4.72;;;;;;;;;;5022279;28;20576;-57
2023/03/22 01:27:00;;;;;;;7.40;4.68;;;;;;;;;;5022857;28;20038;-59
2023/03/22 01:29:25;;;;;;;10.15;4.82;;;;;;;;;;5003280;28;20036;-55
2023/03/22 01:31:51;;;;;;;8.68;5.03;;;;;;;;;;5021825;28;20037;-55
2023/03/22 01:34:16;;;;;;;10.05;5.13;;;;;;;;;;5023585;28;20806;-53
2023/03/22 01:36:41;;;;;;;8.68;4.68;;;;;;;;;;5019910;28;20038;-56
2023/03/22 01:39:07;;;;;;;5.93;4.05;;;;;;;;;;5027507;28;20055;-57
2023/03/22 01:41:33;;;;;;;8.95;5.18;;;;;;;;;;5026650;28;20033;-57
2023/03/22 01:44:12;;;;;;;7.93;5.13;;;;;;;;;;5023563;28;20102;-57
2023/03/22 01:46:38;;;;;;;8.18;5.07;;;;;;;;;;5042003;28;20493;-54
2023/03/22 01:49:05;;;;;;;13.20;6.47;;;;;;;;;;5024443;28;20034;-55
2023/03/22 01:51:30;;;;;;;15.10;6.80;;;;;;;;;;5024679;28;20041;-57
2023/03/22 01:54:26;;;;;;;11.68;5.72;;;;;;;;;;5024663;28;20045;-58
2023/03/22 01:56:51;;;;;;;12.23;6.03;;;;;;;;;;5027245;28;20045;-54
2023/03/22 01:59:26;;;;;;;10.73;6.55;;;;;;;;;;5018610;28;20030;-54
2023/03/22 02:02:09;;;;;;;10.02;5.63;;;;;;;;;;5025826;28;20152;-54
2023/03/22 02:04:37;;;;;;;10.10;5.68;;;;;;;;;;5025194;28;20743;-57
2023/03/22 02:07:08;;;;;;;10.35;5.88;;;;;;;;;;5023875;28;20047;-56
2023/03/22 02:09:43;;;;;;;12.05;5.80;;;;;;;;;;5022586;28;20044;-54
2023/03/22 02:12:28;;;;;;;8.73;5.80;;;;;;;;;;5021487;28;20033;-59
2023/03/22 02:15:11;;;;;;;8.77;5.32;;;;;;;;;;5025599;28;20037;-60
2023/03/22 02:18:41;;;;;;;9.55;5.22;;;;;;;;;;5014458;28;20536;-58
2023/03/22 02:21:39;;;;;;;12.68;5.88;;;;;;;;;;4980477;28;20041;-56
2023/03/22 02:24:24;;;;;;;11.43;5.95;;;;;;;;;;4978960;28;20168;-55
2023/03/22 02:27:06;;;;;;;8.75;5.82;;;;;;;;;;5014368;28;20150;-57
2023/03/22 02:29:43;;;;;;;8.13;5.50;;;;;;;;;;5022727;28;20887;-55
2023/03/22 02:32:29;;;;;;;7.97;5.22;;;;;;;;;;5035134;28;20029;-62
2023/03/22 02:35:13;;;;;;;7.00;4.55;;;;;;;;;;5035178;28;20079;-63
2023/03/22 02:37:57;;;;;;;7.18;4.90;;;;;;;;;;5024457;28;20085;-55
2023/03/22 02:40:22;;;;;;;6.85;4.78;;;;;;;;;;5024756;28;20033;-58
2023/03/22 02:42:57;;;;;;;9.13;5.07;;;;;;;;;;5026841;28;20397;-63
2023/03/22 02:45:30;;;;;;;8.82;5.35;;;;;;;;;;5026047;28;20884;-61
2023/03/22 02:48:05;;;;;;;9.23;5.22;;;;;;;;;;5022776;28;20072;-52
2023/03/22 02:50:36;;;;;;;9.75;5.90;;;;;;;;;;5037394;28;20033;-56
2023/03/22 02:53:10;;;;;;;7.80;5.45;;;;;;;;;;5027345;28;20029;-52
2023/03/22 02:55:41;;;;;;;10.40;5.25;;;;;;;;;;5023964;28;20033;-56
2023/03/22 02:58:18;;;;;;;9.65;6.05;;;;;;;;;;5022649;28;20033;-56
2023/03/22 03:00:45;;;;;;;12.35;6.05;;;;;;;;;;5032158;28;20040;-57
2023/03/22 03:03:11;;;;;;;9.95;6.22;;;;;;;;;;5023811;28;20124;-59
2023/03/22 03:05:41;;;;;;;8.40;5.15;;;;;;;;;;5029781;28;20045;-57
2023/03/22 03:08:08;;;;;;;9.00;5.90;;;;;;;;;;5031836;28;20091;-55
2023/03/22 03:10:37;;;;;;;7.15;5.13;;;;;;;;;;5020761;28;20037;-52
2023/03/22 03:13:02;;;;;;;8.30;5.60;;;;;;;;;;5025147;28;20116;-48
2023/03/22 03:15:28;;;;;;;7.70;5.28;;;;;;;;;;5025303;28;20116;-54
2023/03/22 03:18:06;;;;;;;8.27;4.72;;;;;;;;;;5038060;28;20136;-59
2023/03/22 03:20:33;;;;;;;8.30;5.18;;;;;;;;;;5024214;28;20041;-58
2023/03/22 03:23:12;;;;;;;8.82;5.63;;;;;;;;;;5003968;28;20079;-57
2023/03/22 03:25:42;;;;;;;8.07;5.78;;;;;;;;;;5022013;28;20042;-57
2023/03/22 03:28:11;;;;;;;9.05;5.30;;;;;;;;;;5024602;28;20067;-59
2023/03/22 03:30:45;;;;;;;8.32;5.25;;;;;;;;;;5024077;28;20495;-55
2023/03/22 03:33:15;;;;;;;10.13;6.10;;;;;;;;;;5023458;28;20021;-58
2023/03/22 03:35:52;;;;;;;11.43;6.30;;;;;;;;;;5037659;28;20084;-55
2023/03/22 03:38:20;;;;;;;13.13;5.68;;;;;;;;;;5023391;28;20057;-58
2023/03/22 03:40:47;;;;;;;8.00;5.65;;;;;;;;;;5024775;28;20037;-55
2023/03/22 03:43:12;;;;;;;;;;;;;;;;;;5023228;28;20029;-55
2023/03/22 03:45:38;;;;;;;9.83;5.80;;;;;;;;;;5021439;28;19949;-59
2023/03/22 03:48:06;;;;;;;8.52;5.60;;;;;;;;;;5021930;28;20908;-56
2023/03/22 03:50:32;;;;;;;8.80;5.28;;;;;;;;;;5022304;28;20025;-55
2023/03/22 03:52:57;;;;;;;7.30;4.88;;;;;;;;;;5023648;28;20037;-59
2023/03/22 03:55:23;;;;;;;9.05;5.50;;;;;;;;;;5030428;28;20531;-57
2023/03/22 03:57:48;;;;;;;10.48;5.50;;;;;;;;;;5028233;28;20148;-53
2023/03/22 04:00:14;;;;;;;9.82;6.05;;;;;;;;;;5026588;28;20029;-54
2023/03/22 04:02:40;;;;;;;8.38;5.55;;;;;;;;;;5026128;28;20056;-55
2023/03/22 04:05:06;;;;;;;8.60;5.45;;;;;;;;;;5028773;28;20121;-56
2023/03/22 04:07:32;;;;;;;9.60;5.47;;;;;;;;;;5020999;28;20477;-59
2023/03/22 04:09:57;;;;;;;7.95;5.40;;;;;;;;;;5011280;28;20447;-54
2023/03/22 04:12:28;;;;;;;8.27;5.20;;;;;;;;;;5020734;28;20046;-58
2023/03/22 04:15:20;;;;;;;8.43;5.63;;;;;;;;;;5022471;28;20116;-56
2023/03/22 04:17:50;;;;;;;9.07;5.90;;;;;;;;;;5023448;28;20032;-54
2023/03/22 04:20:16;;;;;;;11.20;6.22;;;;;;;;;;5025330;28;20029;-58
2023/03/22 04:22:42;;;;;;;9.48;5.90;;;;;;;;;;5022529;28;20084;-55
2023/03/22 04:25:10;;;;;;;9.02;6.13;;;;;;;;;;5023329;28;20040;-55
2023/03/22 04:27:40;;;;;;;9.60;5.95;;;;;;;;;;5006171;28;20022;-57
2023/03/22 04:30:10;;;;;;;11.02;5.97;;;;;;;;;;5026981;28;20144;-59
2023/03/22 04:32:55;;;;;;;11.25;5.38;;;;;;;;;;5024405;28;20053;-53
2023/03/22 04:35:27;;;;;;;9.23;5.70;;;;;;;;;;5026297;28;20129;-58
2023/03/22 04:37:53;;;;;;;10.65;5.85;;;;;;;;;;5022211;28;20104;-57
2023/03/22 04:40:20;;;;;;;8.82;5.55;;;;;;;;;;5022121;28;20045;-54
2023/03/22 04:42:57;;;;;;;8.00;5.32;;;;;;;;;;5020808;28;20449;-53
2023/03/22 04:45:34;;;;;;;9.00;5.75;;;;;;;;;;5022535;28;20041;-52
2023/03/22 04:48:01;;;;;;;9.20;5.80;;;;;;;;;;5022705;28;20099;-56
2023/03/22 04:50:28;;;;;;;11.48;6.28;;;;;;;;;;5005772;28;20025;-57
2023/03/22 04:52:57;;;;;;;8.30;6.00;;;;;;;;;;5005317;28;20096;-57
2023/03/22 04:55:23;;;;;;;12.20;6.35;;;;;;;;;;5025201;28;20041;-61
2023/03/22 04:57:49;;;;;;;7.68;5.93;;;;;;;;;;5003993;28;20045;-54
2023/03/22 05:00:16;;;;;;;8.95;5.50;;;;;;;;;;5021485;28;20045;-51
2023/03/22 05:02:42;;;;;;;11.48;6.35;;;;;;;;;;5018793;28;20076;-59
2023/03/22 05:05:15;;;;;;;11.40;6.18;;;;;;;;;;5019522;28;20049;-56
2023/03/22 05:07:42;;;;;;;9.57;6.20;;;;;;;;;;5036938;28;20025;-55
2023/03/22 05:10:08;;;;;;;9.82;6.47;;;;;;;;;;5011136;28;20107;-55
2023/03/22 05:12:34;;;;;;;12.05;7.05;;;;;;;;;;5026114;28;20034;-56
2023/03/22 05:15:22;;;;;;;10.75;6.18;;;;;;;;;;5021062;28;20068;-56
2023/03/22 05:17:49;;;;;;;11.05;6.53;;;;;;;;;;5017952;28;20489;-55
2023/03/22 05:20:15;;;;;;;8.32;5.80;;;;;;;;;;5026256;28;20037;-57
2023/03/22 05:22:44;;;;;;;12.80;5.90;;;;;;;;;;5020928;28;20108;-57
2023/03/22 05:25:10;;;;;;;10.90;6.18;;;;;;;;;;5035320;28;20459;-59
2023/03/22 05:27:37;;;;;;;11.10;6.90;;;;;;;;;;5021047;28;20032;-56
2023/03/22 05:30:23;;;;;;;11.43;6.53;;;;;;;;;;5015396;28;21721;-56
2023/03/22 05:33:04;;;;;;;10.88;6.60;;;;;;;;;;5019819;28;20037;-59
2023/03/22 05:35:36;;;;;;;13.00;7.45;;;;;;;;;;5016540;28;20040;-58
2023/03/22 05:38:02;;;;;;;11.82;6.80;;;;;;;;;;5020514;28;20037;-50
2023/03/22 05:40:29;;;;;;;;;;;;;;;;;;5021024;28;20041;-57
2023/03/22 05:42:54;;;;;;;13.60;8.95;;;;;;;;;;5019661;28;20271;-59
2023/03/22 05:45:24;;;;;;;15.48;8.88;;;;;;;;;;5018874;28;20034;-57
2023/03/22 05:48:01;;;;;;;11.77;8.80;;;;;;;;;;5016100;28;20034;-56
2023/03/22 05:50:28;;;;;;;16.77;8.88;;;;;;;;;;5017817;28;20048;-58
2023/03/22 05:52:53;;;;;;;16.35;8.20;;;;;;;;;;5018736;28;20029;-59
2023/03/22 05:55:45;;;;;;;11.93;7.53;;;;;;;;;;5021413;28;20076;-58
2023/03/22 05:58:11;;;;;;;11.88;7.65;;;;;;;;;;5020919;28;20050;-54
2023/03/22 06:00:38;;;;;;;14.02;7.97;;;;;;;;;;5020801;28;20621;-56
2023/03/22 06:03:19;;;;;;;12.55;7.82;;;;;;;;;;5019290;28;20037;-57
2023/03/22 06:05:53;;;;;;;12.70;8.18;;;;;;;;;;5017167;28;20550;-54
2023/03/22 06:08:22;;;;;;;13.02;7.80;;;;;;;;;;5015562;28;20136;-56
2023/03/22 06:10:51;;;;;;;14.50;7.63;;;;;;;;;;5020527;28;20242;-56
2023/03/22 06:13:17;;;;;;;13.38;8.10;;;;;;;;;;5000958;28;20033;-58
2023/03/22 06:15:43;;;;;;;13.18;7.78;;;;;;;;;;5034812;28;20437;-61
2023/03/22 06:18:12;;;;;;;13.27;7.38;;;;;;;;;;5017449;28;20025;-57
2023/03/22 06:20:41;;;;;;;13.88;7.72;;;;;;;;;;5017502;28;20037;-52
2023/03/22 06:23:14;;;;;;;10.98;7.68;;;;;;;;;;5021222;28;20084;-56
2023/03/22 06:25:42;;;;;;;12.95;8.45;;;;;;;;;;5037460;28;20074;-53
2023/03/22 06:28:08;;;;;;;18.20;8.57;;;;;;;;;;5006702;28;20033;-55
2023/03/22 06:30:33;;;;;;;15.45;8.65;;;;;;;;;;5019376;28;20037;-56
2023/03/22 06:33:17;;;;;;;11.95;9.15;;;;;;;;;;5022556;28;20056;-57
2023/03/22 06:35:46;;;;;;;18.08;8.90;;;;;;;;;;5020332;28;20038;-58
2023/03/22 06:38:18;;;;;;;19.55;9.52;;;;;;;;;;5013626;28;20900;-55
2023/03/22 06:40:44;;;;;;;12.85;9.10;;;;;;;;;;5038511;28;20033;-57
2023/03/22 06:43:09;;;;;;;16.08;11.80;;;;;;;;;;5019887;28;20041;-56
2023/03/22 06:45:38;;;;;;;24.40;15.52;;;;;;;;;;5019521;28;20076;-58
2023/03/22 06:48:04;;;;;;;21.23;12.55;;;;;;;;;;5026535;28;20041;-59
2023/03/22 06:50:50;;;;;;;18.60;13.82;;;;;;;;;;5019997;28;20125;-57
2023/03/22 06:53:24;;;;;;;16.83;12.20;;;;;;;;;;5020407;28;20036;-58
2023/03/22 06:55:50;;;;;;;20.92;11.43;;;;;;;;;;5020655;28;20398;-55
2023/03/22 06:58:18;;;;;;;15.15;10.73;;;;;;;;;;5025501;28;20045;-59
2023/03/22 07:00:43;;;;;;;16.73;10.65;;;;;;;;;;5029967;28;20775;-53
2023/03/22 07:03:09;;;;;;;14.80;9.23;;;;;;;;;;5026616;28;20043;-58
2023/03/22 07:05:47;;;;;;;18.02;9.65;;;;;;;;;;5026681;28;20029;-58
2023/03/22 07:08:12;;;;;;;14.70;9.50;;;;;;;;;;5028313;28;20110;-57
2023/03/22 07:10:50;;;;;;;14.32;9.57;;;;;;;;;;5025076;28;20030;-53
2023/03/22 07:13:16;;;;;;;53.17;20.17;;;;;;;;;;5027304;28;20033;-55
2023/03/22 07:15:42;;;;;;;47.80;19.35;;;;;;;;;;5007771;28;20935;-52
2023/03/22 07:18:21;;;;;;;22.70;11.50;;;;;;;;;;5024121;28;20172;-60
2023/03/22 07:20:47;;;;;;;22.33;11.50;;;;;;;;;;5024612;28;20803;-57
2023/03/22 07:23:12;;;;;;;17.98;10.27;;;;;;;;;;5026024;28;20037;-54
2023/03/22 07:25:47;;;;;;;13.63;9.02;;;;;;;;;;5028671;28;20132;-57
2023/03/22 07:28:20;;;;;;;13.27;8.75;;;;;;;;;;5031973;28;20034;-59
2023/03/22 07:30:46;;;;;;;9.45;6.97;;;;;;;;;;5026287;28;20076;-55
2023/03/22 07:33:11;;;;;;;19.40;8.27;;;;;;;;;;5023782;28;20454;-57
2023/03/22 07:35:39;;;;;;;16.23;8.77;;;;;;;;;;5012803;28;20442;-55
2023/03/22 07:38:05;;;;;;;10.10;6.88;;;;;;;;;;5025170;28;20144;-61
2023/03/22 07:40:32;;;;;;;12.18;7.45;;;;;;;;;;5022734;28;20466;-57
2023/03/22 07:42:57;;;;;;;11.43;6.95;;;;;;;;;;5024911;28;20094;-57
2023/03/22 07:45:39;;;;;;;14.98;7.35;;;;;;;;;;5015214;28;20041;-60
2023/03/22 07:48:25;;;;;;;8.32;5.15;;;;;;;;;;5025516;28;20095;-55
2023/03/22 07:51:10;;;;;;;11.87;6.10;;;;;;;;;;5040800;28;20557;-54
2023/03/22 07:53:35;;;;;;;10.05;5.68;;;;;;;;;;5026925;28;20294;-59
2023/03/22 07:56:02;;;;;;;7.80;4.88;;;;;;;;;;5025046;28;20068;-55
2023/03/22 07:58:27;;;;;;;8.47;4.77;;;;;;;;;;5023823;28;20044;-57
2023/03/22 08:00:55;;;;;;;7.53;4.65;;;;;;;;;;5024650;28;20069;-53
2023/03/22 08:03:43;;;;;;;8.23;4.25;;;;;;;;;;5025811;28;20049;-54
2023/03/22 08:06:35;;;;;;;7.85;4.55;;;;;;;;;;5025931;28;20041;-52
2023/03/22 08:09:02;;;;;;;6.78;4.10;;;;;;;;;;5025484;28;20064;-55
2023/03/22 08:11:27;;;;;;;7.43;4.50;;;;;;;;;;5025804;28;20076;-56
2023/03/22 08:13:53;;;;;;;8.07;3.70;;;;;;;;;;5026136;28;20057;-54
2023/03/22 08:16:19;;;;;;;6.30;3.40;;;;;;;;;;5025892;28;20045;-56
2023/03/22 08:18:44;;;;;;;7.43;3.38;;;;;;;;;;5025565;28;20037;-58
2023/03/22 08:21:10;;;;;;;7.72;3.80;;;;;;;;;;5016766;28;20025;-56
2023/03/22 08:23:36;;;;;;;6.00;3.40;;;;;;;;;;5025768;28;20728;-58
2023/03/22 08:26:27;;;;;;;5.80;3.47;;;;;;;;;;5026160;28;20041;-54
2023/03/22 08:28:55;;;;;;;7.07;3.25;;;;;;;;;;5018589;28;20033;-55
2023/03/22 08:31:21;;;;;;;7.03;3.25;;;;;;;;;;5035044;28;20386;-54
2023/03/22 08:33:48;;;;;;;10.30;4.07;;;;;;;;;;5025611;28;20037;-53
2023/03/22 08:36:18;;;;;;;9.70;3.30;;;;;;;;;;5025362;28;20286;-54
2023/03/22 08:38:54;;;;;;;6.13;3.08;;;;;;;;;;5035814;28;20030;-52
2023/03/22 08:41:27;;;;;;;5.68;3.00;;;;;;;;;;5022241;28;20034;-57
2023/03/22 08:43:52;;;;;;;5.35;2.95;;;;;;;;;;5021339;28;20033;-58
2023/03/22 08:46:17;;;;;;;5.53;3.00;;;;;;;;;;5023288;28;20033;-55
2023/03/22 08:48:49;;;;;;;7.03;2.83;;;;;;;;;;5026282;28;20042;-55
2023/03/22 08:51:19;;;;;;;4.93;2.80;;;;;;;;;;5039785;28;20704;-55
2023/03/22 08:54:04;;;;;;;5.65;2.80;;;;;;;;;;5009519;28;20111;-55
2023/03/22 08:56:49;;;;;;;6.80;3.03;;;;;;;;;;5024400;28;20060;-59
2023/03/22 08:59:28;;;;;;;4.32;2.67;;;;;;;;;;5039566;28;20060;-50
2023/03/22 09:02:05;;;;;;;4.03;1.85;;;;;;;;;;5022161;28;20029;-52
2023/03/22 09:04:31;;;;;;;5.00;2.22;;;;;;;;;;5040745;28;20037;-59
2023/03/22 09:06:56;;;;;;;3.85;1.70;;;;;;;;;;5024672;28;20037;-57
2023/03/22 09:09:22;;;;;;;4.28;2.00;;;;;;;;;;5024721;28;20033;-54
2023/03/22 09:11:50;;;;;;;3.47;1.80;;;;;;;;;;5024650;28;20032;-56
2023/03/22 09:14:15;;;;;;;2.45;1.60;;;;;;;;;;5024672;28;20033;-56
2023/03/22 09:16:41;;;;;;;2.90;1.63;;;;;;;;;;5025288;28;20394;-51
2023/03/22 09:19:06;;;;;;;4.28;1.83;;;;;;;;;;5025914;28;20128;-54
2023/03/22 09:21:33;;;;;;;3.08;1.85;;;;;;;;;;5024708;28;20037;-53
2023/03/22 09:24:08;;;;;;;4.10;1.60;;;;;;;;;;5023344;28;20033;-55
2023/03/22 09:26:41;;;;;;;3.80;1.98;;;;;;;;;;5024791;28;20044;-55
2023/03/22 09:29:07;;;;;;;3.97;1.63;;;;;;;;;;5024400;28;20033;-53
2023/03/22 09:31:32;;;;;;;8.48;2.42;;;;;;;;;;5024381;28;20033;-51
2023/03/22 09:34:12;;;;;;;2.85;1.60;;;;;;;;;;5024287;28;20072;-52
2023/03/22 09:36:38;;;;;;;2.00;1.40;;;;;;;;;;5008276;28;20073;-60
2023/03/22 09:39:05;;;;;;;3.47;2.10;;;;;;;;;;5017543;28;20120;-51
2023/03/22 09:41:34;;;;;;;4.15;1.60;;;;;;;;;;5022888;28;20045;-53
2023/03/22 09:44:01;;;;;;;3.65;1.65;;;;;;;;;;5016823;28;20394;-53
2023/03/22 09:46:30;;;;;;;4.03;1.60;;;;;;;;;;5025284;28;20045;-51
2023/03/22 09:48:55;;;;;;;;;;;;;;;;;;5025575;28;20041;-50
2023/03/22 09:51:20;;;;;;;3.13;1.85;;;;;;;;;;5026159;28;19913;-58
2023/03/22 09:53:45;;;;;;;4.47;1.90;;;;;;;;;;5021951;28;20057;-57
2023/03/22 09:56:22;;;;;;;4.43;1.80;;;;;;;;;;5024161;28;20659;-56
2023/03/22 09:58:47;;;;;;;;;;;;;;;;;;5029171;28;20036;-56
2023/03/22 10:01:16;;;;;;;5.23;1.90;;;;;;;;;;5029564;28;19913;-56
2023/03/22 10:03:50;;;;;;;3.72;1.80;;;;;;;;;;5029421;28;20016;-53
2023/03/22 10:06:23;;;;;;;4.63;1.80;;;;;;;;;;5029137;28;20037;-53
2023/03/22 10:08:57;;;;;;;3.38;2.00;;;;;;;;;;5027861;28;20398;-55
2023/03/22 10:11:34;;;;;;;2.00;1.58;;;;;;;;;;5027899;28;20037;-57
2023/03/22 10:14:20;;;;;;;6.07;2.08;;;;;;;;;;5028160;28;20037;-57
2023/03/22 10:16:46;;;;;;;8.32;2.00;;;;;;;;;;5026978;28;20057;-57
2023/03/22 10:19:30;;;;;;;4.93;2.05;;;;;;;;;;5029078;28;20026;-53
2023/03/22 10:21:57;;;;;;;4.57;2.05;;;;;;;;;;5029216;28;20041;-56
2023/03/22 10:24:22;;;;;;;;;;;;;;;;;;5037368;28;20025;-57
2023/03/22 10:26:48;;;;;;;2.87;1.80;;;;;;;;;;5029425;28;19917;-55
2023/03/22 10:29:13;;;;;;;3.65;2.00;;;;;;;;;;5028901;28;20033;-61
2023/03/22 10:31:42;;;;;;;5.05;1.92;;;;;;;;;;5029091;28;20041;-55
2023/03/22 10:34:26;;;;;;;4.57;2.03;;;;;;;;;;5029063;28;20908;-57
2023/03/22 10:36:52;;;;;;;3.85;2.08;;;;;;;;;;5029020;28;20140;-53
2023/03/22 10:39:30;;;;;;;3.22;1.70;;;;;;;;;;5028976;28;20132;-60
2023/03/22 10:41:56;;;;;;;5.00;1.80;;;;;;;;;;5034271;28;20725;-53
2023/03/22 10:44:24;;;;;;;3.00;1.80;;;;;;;;;;5023929;28;20043;-58
2023/03/22 10:46:50;;;;;;;7.03;1.80;;;;;;;;;;5026701;28;20049;-57
2023/03/22 10:49:28;;;;;;;4.63;1.83;;;;;;;;;;5021023;28;20035;-56
2023/03/22 10:51:56;;;;;;;2.35;1.60;;;;;;;;;;5024172;28;20044;-52
2023/03/22 10:54:23;;;;;;;14.48;5.20;;;;;;;;;;5026800;28;20041;-53
2023/03/22 10:56:48;;;;;;;4.63;1.70;;;;;;;;;;5028317;28;20041;-56
2023/03/22 10:59:32;;;;;;;3.08;1.70;;;;;;;;;;5025802;28;20044;-59
2023/03/22 11:02:00;;;;;;;3.17;1.70;;;;;;;;;;5027036;28;20037;-54
2023/03/22 11:04:30;;;;;;;2.92;1.70;;;;;;;;;;5028049;28;20056;-54
2023/03/22 11:06:55;;;;;;;5.63;3.22;;;;;;;;;;5028331;28;20030;-52
2023/03/22 11:09:21;;;;;;;5.35;2.45;;;;;;;;;;5027182;28;20037;-57
2023/03/22 11:11:49;;;;;;;4.13;2.00;;;;;;;;;;5027870;28;20033;-55
2023/03/22 11:14:16;;;;;;;4.00;1.77;;;;;;;;;;5026790;28;20744;-57
2023/03/22 11:16:52;;;;;;;4.32;1.67;;;;;;;;;;5026266;28;20029;-55
2023/03/22 11:19:23;;;;;;;4.47;1.70;;;;;;;;;;5027944;28;20093;-50
2023/03/22 11:21:50;;;;;;;4.47;1.63;;;;;;;;;;5028033;28;20083;-53
2023/03/22 11:24:15;;;;;;;;;;;;;;;;;;5027318;28;20030;-50
2023/03/22 11:26:40;;;;;;;2.47;1.60;;;;;;;;;;5034576;28;19963;-57
2023/03/22 11:29:10;;;;;;;2.85;1.30;;;;;;;;;;5028206;28;20041;-51
2023/03/22 11:31:48;;;;;;;4.40;1.73;;;;;;;;;;5027431;28;20084;-56
2023/03/22 11:34:16;;;;;;;4.10;1.90;;;;;;;;;;5025123;28;20033;-56
2023/03/22 11:36:46;;;;;;;3.03;1.60;;;;;;;;;;5025230;28;20052;-56
2023/03/22 11:39:11;;;;;;;3.90;1.60;;;;;;;;;;5027714;28;20037;-57
2023/03/22 11:41:39;;;;;;;8.82;1.67;;;;;;;;;;5027451;28;20103;-57
2023/03/22 11:44:05;;;;;;;4.05;1.40;;;;;;;;;;5027356;28;20037;-57
2023/03/22 11:46:30;;;;;;;2.45;1.40;;;;;;;;;;5025213;28;20041;-51
2023/03/22 11:49:00;;;;;;;4.87;2.03;;;;;;;;;;5025546;28;20103;-55
2023/03/22 11:51:32;;;;;;;3.67;1.42;;;;;;;;;;5024983;28;20029;-57
2023/03/22 11:54:19;;;;;;;2.63;1.60;;;;;;;;;;5027049;28;20479;-59
2023/03/22 11:56:46;;;;;;;2.42;1.50;;;;;;;;;;5025099;28;20414;-55
2023/03/22 11:59:13;;;;;;;3.25;1.50;;;;;;;;;;5027308;28;20029;-58
2023/03/22 12:01:45;;;;;;;3.42;1.48;;;;;;;;;;5027155;28;20471;-52
2023/03/22 12:04:14;;;;;;;2.85;1.70;;;;;;;;;;5026184;28;20394;-54
2023/03/22 12:06:40;;;;;;;2.33;1.52;;;;;;;;;;5021917;28;20042;-52
2023/03/22 12:09:09;;;;;;;5.70;1.73;;;;;;;;;;5026246;28;20036;-54
2023/03/22 12:11:37;;;;;;;3.67;1.48;;;;;;;;;;5030456;28;20278;-53
2023/03/22 12:14:05;;;;;;;2.20;1.30;;;;;;;;;;5024710;28;20025;-55
2023/03/22 12:16:34;;;;;;;3.42;1.50;;;;;;;;;;5012572;28;20051;-59
2023/03/22 12:19:16;;;;;;;3.40;1.52;;;;;;;;;;5026157;28;20044;-56
2023/03/22 12:21:42;;;;;;;2.75;1.42;;;;;;;;;;5025870;28;20029;-57
2023/03/22 12:24:14;;;;;;;3.47;1.60;;;;;;;;;;5023880;28;20034;-58
2023/03/22 12:26:39;;;;;;;4.82;1.80;;;;;;;;;;5027165;28;20489;-57
2023/03/22 12:29:05;;;;;;;3.30;1.60;;;;;;;;;;5025295;28;20090;-56
2023/03/22 12:31:35;;;;;;;2.90;1.52;;;;;;;;;;5027582;28;20172;-55
2023/03/22 12:34:03;;;;;;;2.95;1.60;;;;;;;;;;5025569;28;20041;-55
2023/03/22 12:36:34;;;;;;;2.95;1.60;;;;;;;;;;5010033;28;20473;-58
2023/03/22 12:39:00;;;;;;;5.45;1.95;;;;;;;;;;5024604;28;20059;-58
2023/03/22 12:41:30;;;;;;;3.00;1.65;;;;;;;;;;5023643;28;20041;-57
2023/03/22 12:43:57;;;;;;;4.70;1.50;;;;;;;;;;5024968;28;20040;-57
2023/03/22 12:46:32;;;;;;;3.20;1.70;;;;;;;;;;5025166;28;20128;-58
2023/03/22 12:49:05;;;;;;;4.22;1.60;;;;;;;;;;5031219;28;20411;-53
2023/03/22 12:51:31;;;;;;;4.00;1.33;;;;;;;;;;5023061;28;20041;-56
2023/03/22 12:53:57;;;;;;;2.50;1.50;;;;;;;;;;5026021;28;20462;-57
2023/03/22 12:56:23;;;;;;;;;;;;;;;;;;5025622;28;20129;-59
2023/03/22 12:58:48;;;;;;;;;;;;;;;;;;5024033;28;19992;-56
2023/03/22 13:01:36;;;;;;;2.63;1.60;;;;;;;;;;5024741;28;19919;-53
2023/03/22 13:04:21;;;;;;;3.80;1.50;;;;;;;;;;5025622;28;20029;-57
2023/03/22 13:06:49;;;;;;;3.90;1.40;;;;;;;;;;5026169;28;20037;-57
2023/03/22 13:09:16;;;;;;;2.22;1.05;;;;;;;;;;5025523;28;20822;-55
2023/03/22 13:12:07;;;;;;;7.47;1.60;;;;;;;;;;5024788;28;20513;-58
2023/03/22 13:14:51;;;;;;;2.83;1.38;;;;;;;;;;5023656;28;20034;-59
2023/03/22 13:17:22;;;;;;;3.20;1.33;;;;;;;;;;5025941;28;20037;-52
2023/03/22 13:19:57;;;;;;;4.40;1.20;;;;;;;;;;5026128;28;20060;-57
2023/03/22 13:22:28;;;;;;;4.75;1.30;;;;;;;;;;5025984;28;20044;-57
2023/03/22 13:24:57;;;;;;;2.63;1.42;;;;;;;;;;5024823;28;20335;-58
2023/03/22 13:27:34;;;;;;;5.43;1.30;;;;;;;;;;5025598;28;20041;-57
2023/03/22 13:29:59;;;;;;;3.47;1.38;;;;;;;;;;5025826;28;20506;-57
2023/03/22 13:32:29;;;;;;;2.93;1.30;;;;;;;;;;5023327;28;20025;-55
2023/03/22 13:34:55;;;;;;;2.00;1.10;;;;;;;;;;5025287;28;20092;-56
2023/03/22 13:37:36;;;;;;;3.60;1.20;;;;;;;;;;5025437;28;20394;-57
2023/03/22 13:40:10;;;;;;;3.00;1.25;;;;;;;;;;5025247;28;20033;-58
2023/03/22 13:42:39;;;;;;;2.17;1.10;;;;;;;;;;5023488;28;20025;-56
2023/03/22 13:45:26;;;;;;;3.50;1.38;;;;;;;;;;5023570;28;20038;-58
2023/03/22 13:48:01;;;;;;;4.57;1.10;;;;;;;;;;5021662;28;20049;-62
2023/03/22 13:50:28;;;;;;;2.30;1.20;;;;;;;;;;5023519;28;20092;-57
2023/03/22 13:52:53;;;;;;;;;;;;;;;;;;5019227;28;20040;-63
2023/03/22 13:55:34;;;;;;;2.10;1.40;;;;;;;;;;5025754;28;19909;-58
2023/03/22 13:58:00;;;;;;;4.32;1.30;;;;;;;;;;5025338;28;20056;-58
2023/03/22 14:00:29;;;;;;;2.40;1.20;;;;;;;;;;5024625;28;20510;-57
2023/03/22 14:02:55;;;;;;;1.67;1.10;;;;;;;;;;5036891;28;20018;-60
2023/03/22 14:05:21;;;;;;;;;;;;;;;;;;5025210;28;20038;-57
2023/03/22 14:07:49;;;;;;;2.10;1.30;;;;;;;;;;5025422;28;20327;-58
2023/03/22 14:10:17;;;;;;;3.53;1.40;;;;;;;;;;5024704;28;20040;-59
2023/03/22 14:12:56;;;;;;;1.80;1.05;;;;;;;;;;5024965;28;20025;-59
2023/03/22 14:15:24;;;;;;;3.28;1.27;;;;;;;;;;5023952;28;20056;-58
2023/03/22 14:17:58;;;;;;;2.33;1.20;;;;;;;;;;5025139;28;20026;-57
2023/03/22 14:20:24;;;;;;;1.90;1.13;;;;;;;;;;5033204;28;20533;-56
2023/03/22 14:22:52;;;;;;;1.88;1.35;;;;;;;;;;5020373;28;20055;-58
2023/03/22 14:25:20;;;;;;;2.78;1.30;;;;;;;;;;5025501;28;20354;-58
2023/03/22 14:27:46;;;;;;;2.05;1.13;;;;;;;;;;5025173;28;20037;-57
2023/03/22 14:30:20;;;;;;;3.15;1.20;;;;;;;;;;5024950;28;20091;-57
2023/03/22 14:32:47;;;;;;;2.35;1.17;;;;;;;;;;5024271;28;20061;-57
2023/03/22 14:35:34;;;;;;;2.20;1.20;;;;;;;;;;5004860;28;20110;-58
2023/03/22 14:38:04;;;;;;;4.78;1.70;;;;;;;;;;5011924;28;20485;-57
2023/03/22 14:40:32;;;;;;;2.55;1.40;;;;;;;;;;5009020;28;20056;-60
2023/03/22 14:43:12;;;;;;;1.27;1.00;;;;;;;;;;5022736;28;20040;-60
2023/03/22 14:45:38;;;;;;;4.63;1.25;;;;;;;;;;5026072;28;20041;-58
2023/03/22 14:48:11;;;;;;;4.43;1.30;;;;;;;;;;5027499;28;20154;-61
2023/03/22 14:50:42;;;;;;;1.80;1.10;;;;;;;;;;5028150;28;20034;-58
2023/03/22 14:53:09;;;;;;;2.30;1.10;;;;;;;;;;5027716;28;20429;-58
2023/03/22 14:55:35;;;;;;;2.55;1.20;;;;;;;;;;5023338;28;20040;-59
2023/03/22 14:58:02;;;;;;;1.52;1.20;;;;;;;;;;5024016;28;20033;-60
2023/03/22 15:00:28;;;;;;;1.88;1.20;;;;;;;;;;5024735;28;20029;-60